首页
METAR-TAF:

METAR-TAF

机场 :

福賈, 意大利

纬度: 41-32N, 经度: 015-43E, 海拔: 57米

当前天气观测

该预报发布于40分钟前的22:55 UTC
风速5节,风向西
温度 9°C
湿度 87%
气压 1027 hPa
能見度: 6000

METAR: LIBA 072255Z 27005KT 6000 NSC 09/07 Q1027 RMK SKC VIS MIN 6000 WIND THR11 27005KT WIND THR29 /////KT WHT

时间: 01:35 (23:35 UTC)

预报

该预报发布于35分钟前的23:00 UTC
预报有效从08日的 00点(UTC)到 08日的 09点(UTC)
风速8节,风向西转西北
能见度10公里或以上
1500米以下无云,无积雨云

TAF: LIBA 072300Z 0800/0809 29008KT CAVOK

超过4000个机场的气象观测和天气预报(METAR&TAF报告)。

可查询的气象台以黄色和红色小点在地图上表示。

将鼠标移到小点上方,可查看气象台名称。

然后点击查看天气观测和预报。

如需切换地图:点击带黑十字的绿色按钮放大地图;点击带横线的绿色按钮缩小地图;或者点击绿色箭头查看邻近地区的地图。


METAR-TAF: